sensor_id;sensor_type;location;lat;lon;timestamp;temperature;humidity
36594;DHT22;22603;47.900;8.146;2023-07-02T00:00:33;14.80;99.90
36594;DHT22;22603;47.900;8.146;2023-07-02T00:03:22;14.80;99.90
36594;DHT22;22603;47.900;8.146;2023-07-02T00:06:09;14.70;99.90
36594;DHT22;22603;47.900;8.146;2023-07-02T00:08:56;14.70;99.90
36594;DHT22;22603;47.900;8.146;2023-07-02T00:11:45;14.70;99.90
36594;DHT22;22603;47.900;8.146;2023-07-02T00:14:32;14.60;99.90
36594;DHT22;22603;47.900;8.146;2023-07-02T00:17:21;14.50;99.90
36594;DHT22;22603;47.900;8.146;2023-07-02T00:20:09;14.60;99.90
36594;DHT22;22603;47.900;8.146;2023-07-02T00:23:00;14.60;99.90
36594;DHT22;22603;47.900;8.146;2023-07-02T00:25:47;14.50;99.90
36594;DHT22;22603;47.900;8.146;2023-07-02T00:28:34;14.60;99.90
36594;DHT22;22603;47.900;8.146;2023-07-02T00:31:21;14.60;99.90
36594;DHT22;22603;47.900;8.146;2023-07-02T00:34:10;14.60;99.90
36594;DHT22;22603;47.900;8.146;2023-07-02T00:36:57;14.70;99.90
36594;DHT22;22603;47.900;8.146;2023-07-02T00:39:44;14.70;99.90
36594;DHT22;22603;47.900;8.146;2023-07-02T00:42:31;14.70;99.90
36594;DHT22;22603;47.900;8.146;2023-07-02T00:45:18;14.70;99.90
36594;DHT22;22603;47.900;8.146;2023-07-02T00:48:05;14.70;99.90
36594;DHT22;22603;47.900;8.146;2023-07-02T00:50:54;14.70;99.90
36594;DHT22;22603;47.900;8.146;2023-07-02T00:53:41;14.70;99.90
36594;DHT22;22603;47.900;8.146;2023-07-02T00:56:28;14.70;99.90
36594;DHT22;22603;47.900;8.146;2023-07-02T00:59:15;14.60;99.90
36594;DHT22;22603;47.900;8.146;2023-07-02T01:02:02;14.60;99.90
36594;DHT22;22603;47.900;8.146;2023-07-02T01:04:51;14.70;99.90
36594;DHT22;22603;47.900;8.146;2023-07-02T01:07:44;14.70;99.90
36594;DHT22;22603;47.900;8.146;2023-07-02T01:10:31;14.60;99.90
36594;DHT22;22603;47.900;8.146;2023-07-02T01:13:22;14.60;99.90
36594;DHT22;22603;47.900;8.146;2023-07-02T01:16:10;14.60;99.90
36594;DHT22;22603;47.900;8.146;2023-07-02T01:18:58;14.60;99.90
36594;DHT22;22603;47.900;8.146;2023-07-02T01:21:50;14.60;99.90
36594;DHT22;22603;47.900;8.146;2023-07-02T01:24:39;14.70;99.90
36594;DHT22;22603;47.900;8.146;2023-07-02T01:27:28;14.70;99.90
36594;DHT22;22603;47.900;8.146;2023-07-02T01:30:15;14.60;99.90
36594;DHT22;22603;47.900;8.146;2023-07-02T01:33:02;14.60;99.90
36594;DHT22;22603;47.900;8.146;2023-07-02T01:35:49;14.70;99.90
36594;DHT22;22603;47.900;8.146;2023-07-02T01:38:38;14.60;99.90
36594;DHT22;22603;47.900;8.146;2023-07-02T01:41:25;14.60;99.90
36594;DHT22;22603;47.900;8.146;2023-07-02T01:44:12;14.60;99.90
36594;DHT22;22603;47.900;8.146;2023-07-02T01:47:00;14.60;99.90
36594;DHT22;22603;47.900;8.146;2023-07-02T01:49:47;14.50;99.90
36594;DHT22;22603;47.900;8.146;2023-07-02T01:52:34;14.60;99.90
36594;DHT22;22603;47.900;8.146;2023-07-02T01:55:22;14.50;99.90
36594;DHT22;22603;47.900;8.146;2023-07-02T01:58:10;14.50;99.90
36594;DHT22;22603;47.900;8.146;2023-07-02T02:00:56;14.50;99.90
36594;DHT22;22603;47.900;8.146;2023-07-02T02:03:43;14.50;99.90
36594;DHT22;22603;47.900;8.146;2023-07-02T02:06:30;14.50;99.90
36594;DHT22;22603;47.900;8.146;2023-07-02T02:09:17;14.50;99.90
36594;DHT22;22603;47.900;8.146;2023-07-02T02:12:06;14.50;99.90
36594;DHT22;22603;47.900;8.146;2023-07-02T02:14:53;14.50;99.90
36594;DHT22;22603;47.900;8.146;2023-07-02T02:17:40;14.50;99.90
36594;DHT22;22603;47.900;8.146;2023-07-02T02:20:27;14.50;99.90
36594;DHT22;22603;47.900;8.146;2023-07-02T02:23:14;14.50;99.90
36594;DHT22;22603;47.900;8.146;2023-07-02T02:26:03;14.50;99.90
36594;DHT22;22603;47.900;8.146;2023-07-02T02:28:51;14.50;99.90
36594;DHT22;22603;47.900;8.146;2023-07-02T02:31:38;14.50;99.90
36594;DHT22;22603;47.900;8.146;2023-07-02T02:34:26;14.40;99.90
36594;DHT22;22603;47.900;8.146;2023-07-02T02:37:14;14.50;99.90
36594;DHT22;22603;47.900;8.146;2023-07-02T02:40:01;14.40;99.90
36594;DHT22;22603;47.900;8.146;2023-07-02T02:42:48;14.50;99.90
36594;DHT22;22603;47.900;8.146;2023-07-02T02:45:36;14.40;99.90
36594;DHT22;22603;47.900;8.146;2023-07-02T02:48:23;14.40;99.90
36594;DHT22;22603;47.900;8.146;2023-07-02T02:51:10;14.40;99.90
36594;DHT22;22603;47.900;8.146;2023-07-02T02:53:57;14.40;99.90
36594;DHT22;22603;47.900;8.146;2023-07-02T02:56:44;14.40;99.90
36594;DHT22;22603;47.900;8.146;2023-07-02T02:59:32;14.40;99.90
36594;DHT22;22603;47.900;8.146;2023-07-02T03:02:20;14.40;99.90
36594;DHT22;22603;47.900;8.146;2023-07-02T03:05:08;14.40;99.90
36594;DHT22;22603;47.900;8.146;2023-07-02T03:07:55;14.40;99.90
36594;DHT22;22603;47.900;8.146;2023-07-02T03:10:42;14.40;99.90
36594;DHT22;22603;47.900;8.146;2023-07-02T03:13:29;14.30;99.90
36594;DHT22;22603;47.900;8.146;2023-07-02T03:16:16;14.30;99.90
36594;DHT22;22603;47.900;8.146;2023-07-02T03:19:05;14.30;99.90
36594;DHT22;22603;47.900;8.146;2023-07-02T03:21:52;14.20;99.90
36594;DHT22;22603;47.900;8.146;2023-07-02T03:24:39;14.20;99.90
36594;DHT22;22603;47.900;8.146;2023-07-02T03:27:27;14.20;99.90
36594;DHT22;22603;47.900;8.146;2023-07-02T03:30:14;14.20;99.90
36594;DHT22;22603;47.900;8.146;2023-07-02T03:33:01;14.20;99.90
36594;DHT22;22603;47.900;8.146;2023-07-02T03:35:49;14.10;99.90
36594;DHT22;22603;47.900;8.146;2023-07-02T03:38:36;14.00;99.90
36594;DHT22;22603;47.900;8.146;2023-07-02T03:41:23;14.00;99.90
36594;DHT22;22603;47.900;8.146;2023-07-02T03:44:10;14.00;99.90
36594;DHT22;22603;47.900;8.146;2023-07-02T03:46:57;14.00;99.90
36594;DHT22;22603;47.900;8.146;2023-07-02T03:49:44;13.90;99.90
36594;DHT22;22603;47.900;8.146;2023-07-02T03:52:32;13.90;99.90
36594;DHT22;22603;47.900;8.146;2023-07-02T03:55:19;13.90;99.90
36594;DHT22;22603;47.900;8.146;2023-07-02T03:58:06;13.90;99.90
36594;DHT22;22603;47.900;8.146;2023-07-02T04:00:53;13.90;99.90
36594;DHT22;22603;47.900;8.146;2023-07-02T04:03:42;13.90;99.90
36594;DHT22;22603;47.900;8.146;2023-07-02T04:06:34;13.90;99.90
36594;DHT22;22603;47.900;8.146;2023-07-02T04:09:23;13.90;99.90
36594;DHT22;22603;47.900;8.146;2023-07-02T04:12:10;13.90;99.90
36594;DHT22;22603;47.900;8.146;2023-07-02T04:14:57;13.90;99.90
36594;DHT22;22603;47.900;8.146;2023-07-02T04:17:44;14.00;99.90
36594;DHT22;22603;47.900;8.146;2023-07-02T04:20:31;13.90;99.90
36594;DHT22;22603;47.900;8.146;2023-07-02T04:23:18;14.00;99.90
36594;DHT22;22603;47.900;8.146;2023-07-02T04:26:07;13.90;99.90
36594;DHT22;22603;47.900;8.146;2023-07-02T04:29:14;13.90;99.90
36594;DHT22;22603;47.900;8.146;2023-07-02T04:32:01;13.90;99.90
36594;DHT22;22603;47.900;8.146;2023-07-02T04:34:48;13.90;99.90
36594;DHT22;22603;47.900;8.146;2023-07-02T04:37:35;14.00;99.90
36594;DHT22;22603;47.900;8.146;2023-07-02T04:40:23;14.00;99.90
36594;DHT22;22603;47.900;8.146;2023-07-02T04:43:11;14.00;99.90
36594;DHT22;22603;47.900;8.146;2023-07-02T04:45:58;14.00;99.90
36594;DHT22;22603;47.900;8.146;2023-07-02T04:48:46;14.00;99.90
36594;DHT22;22603;47.900;8.146;2023-07-02T04:51:34;14.00;99.90
36594;DHT22;22603;47.900;8.146;2023-07-02T04:54:21;14.00;99.90
36594;DHT22;22603;47.900;8.146;2023-07-02T04:57:08;14.00;99.90
36594;DHT22;22603;47.900;8.146;2023-07-02T04:59:57;14.00;99.90
36594;DHT22;22603;47.900;8.146;2023-07-02T05:02:44;14.00;99.90
36594;DHT22;22603;47.900;8.146;2023-07-02T05:05:32;14.00;99.90
36594;DHT22;22603;47.900;8.146;2023-07-02T05:08:19;14.00;99.90
36594;DHT22;22603;47.900;8.146;2023-07-02T05:11:06;14.10;99.90
36594;DHT22;22603;47.900;8.146;2023-07-02T05:13:53;14.20;99.90
36594;DHT22;22603;47.900;8.146;2023-07-02T05:16:43;14.20;99.90
36594;DHT22;22603;47.900;8.146;2023-07-02T05:19:30;14.20;99.90
36594;DHT22;22603;47.900;8.146;2023-07-02T05:22:17;14.30;99.90
36594;DHT22;22603;47.900;8.146;2023-07-02T05:25:05;14.40;99.90
36594;DHT22;22603;47.900;8.146;2023-07-02T05:27:52;14.40;99.90
36594;DHT22;22603;47.900;8.146;2023-07-02T05:30:39;14.50;99.90
36594;DHT22;22603;47.900;8.146;2023-07-02T05:33:29;14.70;99.90
36594;DHT22;22603;47.900;8.146;2023-07-02T05:36:18;14.70;99.90
36594;DHT22;22603;47.900;8.146;2023-07-02T05:39:05;14.60;99.90
36594;DHT22;22603;47.900;8.146;2023-07-02T05:41:52;14.70;99.90
36594;DHT22;22603;47.900;8.146;2023-07-02T05:44:39;14.70;99.90
36594;DHT22;22603;47.900;8.146;2023-07-02T05:47:26;14.70;99.90
36594;DHT22;22603;47.900;8.146;2023-07-02T05:50:17;14.80;99.90
36594;DHT22;22603;47.900;8.146;2023-07-02T05:53:04;15.00;99.90
36594;DHT22;22603;47.900;8.146;2023-07-02T05:55:52;15.10;99.90
36594;DHT22;22603;47.900;8.146;2023-07-02T05:58:39;15.00;99.90
36594;DHT22;22603;47.900;8.146;2023-07-02T06:01:33;15.20;99.90
36594;DHT22;22603;47.900;8.146;2023-07-02T06:04:20;15.40;99.90
36594;DHT22;22603;47.900;8.146;2023-07-02T06:07:09;15.50;99.90
36594;DHT22;22603;47.900;8.146;2023-07-02T06:09:56;15.50;99.90
36594;DHT22;22603;47.900;8.146;2023-07-02T06:12:43;15.50;99.90
36594;DHT22;22603;47.900;8.146;2023-07-02T06:15:31;15.20;99.90
36594;DHT22;22603;47.900;8.146;2023-07-02T06:18:18;15.30;99.90
36594;DHT22;22603;47.900;8.146;2023-07-02T06:21:05;15.40;99.90
36594;DHT22;22603;47.900;8.146;2023-07-02T06:23:57;15.50;99.90
36594;DHT22;22603;47.900;8.146;2023-07-02T06:26:44;15.50;99.90
36594;DHT22;22603;47.900;8.146;2023-07-02T06:29:31;15.70;99.90
36594;DHT22;22603;47.900;8.146;2023-07-02T06:32:18;15.80;99.90
36594;DHT22;22603;47.900;8.146;2023-07-02T06:35:05;16.10;99.90
36594;DHT22;22603;47.900;8.146;2023-07-02T06:37:52;16.20;99.90
36594;DHT22;22603;47.900;8.146;2023-07-02T06:40:41;16.40;99.90
36594;DHT22;22603;47.900;8.146;2023-07-02T06:43:28;16.40;99.90
36594;DHT22;22603;47.900;8.146;2023-07-02T06:46:15;16.20;99.90
36594;DHT22;22603;47.900;8.146;2023-07-02T06:49:02;16.20;99.90
36594;DHT22;22603;47.900;8.146;2023-07-02T06:51:49;16.10;99.90
36594;DHT22;22603;47.900;8.146;2023-07-02T06:54:36;16.00;99.90
36594;DHT22;22603;47.900;8.146;2023-07-02T06:57:26;15.90;99.90
36594;DHT22;22603;47.900;8.146;2023-07-02T07:00:14;15.90;99.90
36594;DHT22;22603;47.900;8.146;2023-07-02T07:03:01;15.80;99.90
36594;DHT22;22603;47.900;8.146;2023-07-02T07:05:49;15.90;99.90
36594;DHT22;22603;47.900;8.146;2023-07-02T07:08:37;15.80;99.90
36594;DHT22;22603;47.900;8.146;2023-07-02T07:11:25;15.60;99.90
36594;DHT22;22603;47.900;8.146;2023-07-02T07:14:13;15.80;99.90
36594;DHT22;22603;47.900;8.146;2023-07-02T07:17:01;15.70;99.90
36594;DHT22;22603;47.900;8.146;2023-07-02T07:19:48;15.90;99.90
36594;DHT22;22603;47.900;8.146;2023-07-02T07:22:35;16.00;99.90
36594;DHT22;22603;47.900;8.146;2023-07-02T07:25:22;16.20;99.90
36594;DHT22;22603;47.900;8.146;2023-07-02T07:28:10;16.30;99.90
36594;DHT22;22603;47.900;8.146;2023-07-02T07:31:02;16.50;99.90
36594;DHT22;22603;47.900;8.146;2023-07-02T07:33:49;16.50;99.90
36594;DHT22;22603;47.900;8.146;2023-07-02T07:36:37;16.30;99.90
36594;DHT22;22603;47.900;8.146;2023-07-02T07:39:24;16.20;99.90
36594;DHT22;22603;47.900;8.146;2023-07-02T07:42:12;16.20;99.90
36594;DHT22;22603;47.900;8.146;2023-07-02T07:45:01;16.20;99.90
36594;DHT22;22603;47.900;8.146;2023-07-02T07:47:50;16.20;99.90
36594;DHT22;22603;47.900;8.146;2023-07-02T07:50:37;16.20;99.90
36594;DHT22;22603;47.900;8.146;2023-07-02T07:53:24;16.30;99.90
36594;DHT22;22603;47.900;8.146;2023-07-02T07:56:11;16.30;99.90
36594;DHT22;22603;47.900;8.146;2023-07-02T07:58:58;16.60;99.90
36594;DHT22;22603;47.900;8.146;2023-07-02T08:01:45;16.80;99.90
36594;DHT22;22603;47.900;8.146;2023-07-02T08:04:34;16.70;99.90
36594;DHT22;22603;47.900;8.146;2023-07-02T08:07:21;16.80;99.90
36594;DHT22;22603;47.900;8.146;2023-07-02T08:10:09;16.80;99.90
36594;DHT22;22603;47.900;8.146;2023-07-02T08:12:56;16.90;99.90
36594;DHT22;22603;47.900;8.146;2023-07-02T08:15:44;17.30;99.90
36594;DHT22;22603;47.900;8.146;2023-07-02T08:18:31;17.70;99.90
36594;DHT22;22603;47.900;8.146;2023-07-02T08:21:19;17.80;99.90
36594;DHT22;22603;47.900;8.146;2023-07-02T08:24:07;17.80;99.90
36594;DHT22;22603;47.900;8.146;2023-07-02T08:26:54;17.90;99.90
36594;DHT22;22603;47.900;8.146;2023-07-02T08:29:41;18.10;99.90
36594;DHT22;22603;47.900;8.146;2023-07-02T08:32:30;18.10;99.90
36594;DHT22;22603;47.900;8.146;2023-07-02T08:35:19;18.40;99.90
36594;DHT22;22603;47.900;8.146;2023-07-02T08:38:07;18.70;99.90
36594;DHT22;22603;47.900;8.146;2023-07-02T08:40:54;18.30;99.90
36594;DHT22;22603;47.900;8.146;2023-07-02T08:43:41;18.20;99.90
36594;DHT22;22603;47.900;8.146;2023-07-02T08:46:28;18.50;99.90
36594;DHT22;22603;47.900;8.146;2023-07-02T08:49:15;19.10;99.90
36594;DHT22;22603;47.900;8.146;2023-07-02T08:52:03;18.90;99.90
36594;DHT22;22603;47.900;8.146;2023-07-02T08:54:52;19.30;99.90
36594;DHT22;22603;47.900;8.146;2023-07-02T08:57:40;19.00;99.90
36594;DHT22;22603;47.900;8.146;2023-07-02T09:00:28;19.00;99.90
36594;DHT22;22603;47.900;8.146;2023-07-02T09:03:17;19.20;99.90
36594;DHT22;22603;47.900;8.146;2023-07-02T09:06:05;19.40;99.90
36594;DHT22;22603;47.900;8.146;2023-07-02T09:08:52;19.70;99.90
36594;DHT22;22603;47.900;8.146;2023-07-02T09:11:50;19.40;99.90
36594;DHT22;22603;47.900;8.146;2023-07-02T09:14:37;19.00;99.90
36594;DHT22;22603;47.900;8.146;2023-07-02T09:17:28;19.10;99.90
36594;DHT22;22603;47.900;8.146;2023-07-02T09:20:17;19.10;99.90
36594;DHT22;22603;47.900;8.146;2023-07-02T09:23:04;19.10;99.90
36594;DHT22;22603;47.900;8.146;2023-07-02T09:25:51;18.90;99.90
36594;DHT22;22603;47.900;8.146;2023-07-02T09:28:40;18.70;99.90
36594;DHT22;22603;47.900;8.146;2023-07-02T09:31:27;19.50;99.90
36594;DHT22;22603;47.900;8.146;2023-07-02T09:34:14;19.80;99.90
36594;DHT22;22603;47.900;8.146;2023-07-02T09:37:03;19.70;99.90
36594;DHT22;22603;47.900;8.146;2023-07-02T09:39:53;19.90;99.90
36594;DHT22;22603;47.900;8.146;2023-07-02T09:42:41;19.90;99.90
36594;DHT22;22603;47.900;8.146;2023-07-02T09:45:30;19.90;99.90
36594;DHT22;22603;47.900;8.146;2023-07-02T09:48:17;20.50;99.90
36594;DHT22;22603;47.900;8.146;2023-07-02T09:51:06;20.30;99.90
36594;DHT22;22603;47.900;8.146;2023-07-02T09:53:53;20.30;99.90
36594;DHT22;22603;47.900;8.146;2023-07-02T09:56:40;20.50;99.90
36594;DHT22;22603;47.900;8.146;2023-07-02T09:59:28;20.10;99.90
36594;DHT22;22603;47.900;8.146;2023-07-02T10:02:17;20.20;99.90
36594;DHT22;22603;47.900;8.146;2023-07-02T10:05:05;20.00;99.90
36594;DHT22;22603;47.900;8.146;2023-07-02T10:07:53;19.70;99.90
36594;DHT22;22603;47.900;8.146;2023-07-02T10:10:41;19.80;99.90
36594;DHT22;22603;47.900;8.146;2023-07-02T10:13:28;19.70;99.90
36594;DHT22;22603;47.900;8.146;2023-07-02T10:16:15;19.70;99.90
36594;DHT22;22603;47.900;8.146;2023-07-02T10:19:10;19.30;99.90
36594;DHT22;22603;47.900;8.146;2023-07-02T10:22:01;19.50;99.90
36594;DHT22;22603;47.900;8.146;2023-07-02T10:24:53;19.50;99.90
36594;DHT22;22603;47.900;8.146;2023-07-02T10:27:43;19.70;99.90
36594;DHT22;22603;47.900;8.146;2023-07-02T10:30:34;20.00;99.90
36594;DHT22;22603;47.900;8.146;2023-07-02T10:33:22;20.00;99.90
36594;DHT22;22603;47.900;8.146;2023-07-02T10:36:17;20.00;99.90
36594;DHT22;22603;47.900;8.146;2023-07-02T10:39:05;19.80;99.90
36594;DHT22;22603;47.900;8.146;2023-07-02T10:41:52;19.70;99.90
36594;DHT22;22603;47.900;8.146;2023-07-02T10:44:48;19.70;99.90
36594;DHT22;22603;47.900;8.146;2023-07-02T10:47:39;19.80;99.90
36594;DHT22;22603;47.900;8.146;2023-07-02T10:50:26;19.80;99.90
36594;DHT22;22603;47.900;8.146;2023-07-02T10:53:19;19.70;99.90
36594;DHT22;22603;47.900;8.146;2023-07-02T10:56:06;19.70;99.90
36594;DHT22;22603;47.900;8.146;2023-07-02T10:58:54;19.60;99.90
36594;DHT22;22603;47.900;8.146;2023-07-02T11:01:41;19.30;99.90
36594;DHT22;22603;47.900;8.146;2023-07-02T11:04:29;19.30;99.90
36594;DHT22;22603;47.900;8.146;2023-07-02T11:07:22;19.40;99.90
36594;DHT22;22603;47.900;8.146;2023-07-02T11:10:18;19.00;99.90
36594;DHT22;22603;47.900;8.146;2023-07-02T11:13:12;19.10;99.90
36594;DHT22;22603;47.900;8.146;2023-07-02T11:15:59;19.20;99.90
36594;DHT22;22603;47.900;8.146;2023-07-02T11:18:46;19.30;99.90
36594;DHT22;22603;47.900;8.146;2023-07-02T11:21:33;19.40;99.90
36594;DHT22;22603;47.900;8.146;2023-07-02T11:24:30;19.50;99.90
36594;DHT22;22603;47.900;8.146;2023-07-02T11:27:22;19.50;99.90
36594;DHT22;22603;47.900;8.146;2023-07-02T11:30:10;19.50;99.90
36594;DHT22;22603;47.900;8.146;2023-07-02T11:32:57;19.30;99.90
36594;DHT22;22603;47.900;8.146;2023-07-02T11:35:45;19.00;99.90
36594;DHT22;22603;47.900;8.146;2023-07-02T11:38:33;18.80;99.90
36594;DHT22;22603;47.900;8.146;2023-07-02T11:41:21;18.80;99.90
36594;DHT22;22603;47.900;8.146;2023-07-02T11:44:09;18.70;99.90
36594;DHT22;22603;47.900;8.146;2023-07-02T11:46:57;18.70;99.90
36594;DHT22;22603;47.900;8.146;2023-07-02T11:49:44;18.80;99.90
36594;DHT22;22603;47.900;8.146;2023-07-02T11:52:31;19.00;99.90
36594;DHT22;22603;47.900;8.146;2023-07-02T11:55:18;19.10;99.90
36594;DHT22;22603;47.900;8.146;2023-07-02T11:58:05;19.20;99.90
36594;DHT22;22603;47.900;8.146;2023-07-02T12:00:53;18.80;99.90
36594;DHT22;22603;47.900;8.146;2023-07-02T12:03:41;18.90;99.90
36594;DHT22;22603;47.900;8.146;2023-07-02T12:06:28;18.60;99.90
36594;DHT22;22603;47.900;8.146;2023-07-02T12:09:15;18.50;99.90
36594;DHT22;22603;47.900;8.146;2023-07-02T12:12:02;18.60;99.90
36594;DHT22;22603;47.900;8.146;2023-07-02T12:14:50;19.00;99.90
36594;DHT22;22603;47.900;8.146;2023-07-02T12:17:38;19.00;99.90
36594;DHT22;22603;47.900;8.146;2023-07-02T12:20:26;19.10;99.90
36594;DHT22;22603;47.900;8.146;2023-07-02T12:23:13;19.00;99.90
36594;DHT22;22603;47.900;8.146;2023-07-02T12:26:00;18.90;99.90
36594;DHT22;22603;47.900;8.146;2023-07-02T12:28:47;18.70;99.90
36594;DHT22;22603;47.900;8.146;2023-07-02T12:31:34;18.90;99.90
36594;DHT22;22603;47.900;8.146;2023-07-02T12:34:25;19.00;99.90
36594;DHT22;22603;47.900;8.146;2023-07-02T12:37:12;18.80;99.90
36594;DHT22;22603;47.900;8.146;2023-07-02T12:40:03;18.80;99.90
36594;DHT22;22603;47.900;8.146;2023-07-02T12:42:50;18.70;99.90
36594;DHT22;22603;47.900;8.146;2023-07-02T12:45:38;18.80;99.90
36594;DHT22;22603;47.900;8.146;2023-07-02T12:48:25;19.10;99.90
36594;DHT22;22603;47.900;8.146;2023-07-02T12:51:13;19.10;99.90
36594;DHT22;22603;47.900;8.146;2023-07-02T12:54:03;19.30;99.90
36594;DHT22;22603;47.900;8.146;2023-07-02T12:56:50;19.10;99.90
36594;DHT22;22603;47.900;8.146;2023-07-02T12:59:37;19.50;99.90
36594;DHT22;22603;47.900;8.146;2023-07-02T13:02:24;19.80;99.90
36594;DHT22;22603;47.900;8.146;2023-07-02T13:05:12;20.30;99.90
36594;DHT22;22603;47.900;8.146;2023-07-02T13:08:01;20.30;99.90
36594;DHT22;22603;47.900;8.146;2023-07-02T13:10:48;20.30;99.90
36594;DHT22;22603;47.900;8.146;2023-07-02T13:13:35;20.40;99.90
36594;DHT22;22603;47.900;8.146;2023-07-02T13:16:22;21.00;99.90
36594;DHT22;22603;47.900;8.146;2023-07-02T13:19:12;21.60;99.90
36594;DHT22;22603;47.900;8.146;2023-07-02T13:22:01;21.90;99.90
36594;DHT22;22603;47.900;8.146;2023-07-02T13:24:49;21.80;99.90
36594;DHT22;22603;47.900;8.146;2023-07-02T13:27:37;21.40;99.90
36594;DHT22;22603;47.900;8.146;2023-07-02T13:30:24;21.00;99.90
36594;DHT22;22603;47.900;8.146;2023-07-02T13:33:13;21.30;99.90
36594;DHT22;22603;47.900;8.146;2023-07-02T13:36:00;20.90;99.90
36594;DHT22;22603;47.900;8.146;2023-07-02T13:38:47;21.60;99.90
36594;DHT22;22603;47.900;8.146;2023-07-02T13:41:36;21.50;99.90
36594;DHT22;22603;47.900;8.146;2023-07-02T13:44:23;21.40;99.90
36594;DHT22;22603;47.900;8.146;2023-07-02T13:47:10;21.60;99.90
36594;DHT22;22603;47.900;8.146;2023-07-02T13:49:57;21.70;99.90
36594;DHT22;22603;47.900;8.146;2023-07-02T13:52:45;22.30;99.90
36594;DHT22;22603;47.900;8.146;2023-07-02T13:55:33;22.60;99.90
36594;DHT22;22603;47.900;8.146;2023-07-02T13:58:22;22.70;99.90
36594;DHT22;22603;47.900;8.146;2023-07-02T14:01:16;22.70;99.90
36594;DHT22;22603;47.900;8.146;2023-07-02T14:04:04;22.80;99.90
36594;DHT22;22603;47.900;8.146;2023-07-02T14:06:51;23.10;99.90
36594;DHT22;22603;47.900;8.146;2023-07-02T14:09:39;23.30;99.90
36594;DHT22;22603;47.900;8.146;2023-07-02T14:12:26;23.00;99.90
36594;DHT22;22603;47.900;8.146;2023-07-02T14:15:14;23.10;99.90
36594;DHT22;22603;47.900;8.146;2023-07-02T14:18:03;23.30;99.90
36594;DHT22;22603;47.900;8.146;2023-07-02T14:20:50;23.30;99.90
36594;DHT22;22603;47.900;8.146;2023-07-02T14:23:37;23.40;99.90
36594;DHT22;22603;47.900;8.146;2023-07-02T14:26:24;23.50;99.90
36594;DHT22;22603;47.900;8.146;2023-07-02T14:29:11;23.50;99.90
36594;DHT22;22603;47.900;8.146;2023-07-02T14:31:58;23.30;99.90
36594;DHT22;22603;47.900;8.146;2023-07-02T14:34:47;23.20;99.90
36594;DHT22;22603;47.900;8.146;2023-07-02T14:37:34;23.40;99.90
36594;DHT22;22603;47.900;8.146;2023-07-02T14:40:21;23.40;99.90
36594;DHT22;22603;47.900;8.146;2023-07-02T14:43:08;23.50;99.90
36594;DHT22;22603;47.900;8.146;2023-07-02T14:45:59;23.50;99.90
36594;DHT22;22603;47.900;8.146;2023-07-02T14:48:46;23.10;99.90
36594;DHT22;22603;47.900;8.146;2023-07-02T14:51:34;22.40;99.90
36594;DHT22;22603;47.900;8.146;2023-07-02T14:54:21;22.60;99.90
36594;DHT22;22603;47.900;8.146;2023-07-02T14:57:09;22.60;99.90
36594;DHT22;22603;47.900;8.146;2023-07-02T14:59:56;22.70;99.90
36594;DHT22;22603;47.900;8.146;2023-07-02T15:02:43;22.50;99.90
36594;DHT22;22603;47.900;8.146;2023-07-02T15:05:30;22.80;99.90
36594;DHT22;22603;47.900;8.146;2023-07-02T15:08:19;22.80;99.90
36594;DHT22;22603;47.900;8.146;2023-07-02T15:11:08;23.00;99.90
36594;DHT22;22603;47.900;8.146;2023-07-02T15:13:55;22.90;99.90
36594;DHT22;22603;47.900;8.146;2023-07-02T15:16:43;23.00;99.90
36594;DHT22;22603;47.900;8.146;2023-07-02T15:19:31;22.80;99.90
36594;DHT22;22603;47.900;8.146;2023-07-02T15:22:18;22.90;99.90
36594;DHT22;22603;47.900;8.146;2023-07-02T15:25:07;22.60;99.90
36594;DHT22;22603;47.900;8.146;2023-07-02T15:27:54;22.60;99.90
36594;DHT22;22603;47.900;8.146;2023-07-02T15:30:41;22.70;99.90
36594;DHT22;22603;47.900;8.146;2023-07-02T15:33:28;23.10;99.90
36594;DHT22;22603;47.900;8.146;2023-07-02T15:36:15;22.90;99.90
36594;DHT22;22603;47.900;8.146;2023-07-02T15:39:02;22.90;99.90
36594;DHT22;22603;47.900;8.146;2023-07-02T15:41:53;23.00;99.90
36594;DHT22;22603;47.900;8.146;2023-07-02T15:44:40;23.20;99.90
36594;DHT22;22603;47.900;8.146;2023-07-02T15:47:27;23.50;99.90
36594;DHT22;22603;47.900;8.146;2023-07-02T15:50:16;23.10;99.90
36594;DHT22;22603;47.900;8.146;2023-07-02T15:53:04;23.00;99.90
36594;DHT22;22603;47.900;8.146;2023-07-02T15:55:54;23.00;99.90
36594;DHT22;22603;47.900;8.146;2023-07-02T15:58:43;23.30;99.90
36594;DHT22;22603;47.900;8.146;2023-07-02T16:01:30;23.30;99.90
36594;DHT22;22603;47.900;8.146;2023-07-02T16:04:19;23.10;99.90
36594;DHT22;22603;47.900;8.146;2023-07-02T16:07:07;23.30;99.90
36594;DHT22;22603;47.900;8.146;2023-07-02T16:09:55;22.90;99.90
36594;DHT22;22603;47.900;8.146;2023-07-02T16:12:42;23.00;99.90
36594;DHT22;22603;47.900;8.146;2023-07-02T16:15:30;23.00;99.90
36594;DHT22;22603;47.900;8.146;2023-07-02T16:18:17;23.10;99.90
36594;DHT22;22603;47.900;8.146;2023-07-02T16:21:05;23.00;99.90
36594;DHT22;22603;47.900;8.146;2023-07-02T16:23:52;22.90;99.90
36594;DHT22;22603;47.900;8.146;2023-07-02T16:26:38;22.80;99.90
36594;DHT22;22603;47.900;8.146;2023-07-02T16:29:28;22.30;99.90
36594;DHT22;22603;47.900;8.146;2023-07-02T16:32:17;22.40;99.90
36594;DHT22;22603;47.900;8.146;2023-07-02T16:35:08;22.20;99.90
36594;DHT22;22603;47.900;8.146;2023-07-02T16:37:55;21.80;99.90
36594;DHT22;22603;47.900;8.146;2023-07-02T16:40:45;21.20;99.90
36594;DHT22;22603;47.900;8.146;2023-07-02T16:43:33;21.80;99.90
36594;DHT22;22603;47.900;8.146;2023-07-02T16:46:20;22.00;99.90
36594;DHT22;22603;47.900;8.146;2023-07-02T16:49:09;22.00;99.90
36594;DHT22;22603;47.900;8.146;2023-07-02T16:51:57;22.20;99.90
36594;DHT22;22603;47.900;8.146;2023-07-02T16:54:48;22.30;99.90
36594;DHT22;22603;47.900;8.146;2023-07-02T16:57:35;22.10;99.90
36594;DHT22;22603;47.900;8.146;2023-07-02T17:00:23;22.10;99.90
36594;DHT22;22603;47.900;8.146;2023-07-02T17:03:10;21.80;99.90
36594;DHT22;22603;47.900;8.146;2023-07-02T17:06:00;21.70;99.90
36594;DHT22;22603;47.900;8.146;2023-07-02T17:09:15;21.30;99.90
36594;DHT22;22603;47.900;8.146;2023-07-02T17:12:05;20.70;99.90
36594;DHT22;22603;47.900;8.146;2023-07-02T17:14:52;20.80;99.90
36594;DHT22;22603;47.900;8.146;2023-07-02T17:17:39;20.70;99.90
36594;DHT22;22603;47.900;8.146;2023-07-02T17:20:26;20.90;99.90
36594;DHT22;22603;47.900;8.146;2023-07-02T17:23:15;21.00;99.90
36594;DHT22;22603;47.900;8.146;2023-07-02T17:26:03;21.00;99.90
36594;DHT22;22603;47.900;8.146;2023-07-02T17:28:52;20.90;99.90
36594;DHT22;22603;47.900;8.146;2023-07-02T17:31:39;20.80;99.90
36594;DHT22;22603;47.900;8.146;2023-07-02T17:34:29;20.80;99.90
36594;DHT22;22603;47.900;8.146;2023-07-02T17:37:16;20.60;99.90
36594;DHT22;22603;47.900;8.146;2023-07-02T17:40:09;20.50;99.90